Time;durP1;ratioP1;P1;durP2;ratioP2;P2;SDS_P1;SDS_P2;PMS_P1;PMS_P2;Temp;Humidity;BMP_temperature;BMP_pressure;BME280_temperature;BME280_humidity;BME280_pressure;Samples;Min_cycle;Max_cycle;Signal;HPM_P1;HPM_P2
2021/03/22 00:00:17;;;;;;;5.85;3.95;;;;;;;3.56;82.10;98002.31;4811071;29;20038;-76
2021/03/22 00:02:43;;;;;;;6.50;4.35;;;;;;;3.52;82.23;97988.03;4827997;29;20510;-76
2021/03/22 00:05:09;;;;;;;6.05;4.28;;;;;;;3.53;82.20;97992.25;4810668;29;20050;-75
2021/03/22 00:07:35;;;;;;;5.40;3.88;;;;;;;3.53;82.03;97998.34;4825309;29;20034;-75
2021/03/22 00:10:00;;;;;;;6.53;3.45;;;;;;;3.51;82.03;97994.38;4825966;29;20055;-76
2021/03/22 00:12:26;;;;;;;5.22;3.45;;;;;;;3.50;81.86;97983.00;4824987;29;20057;-77
2021/03/22 00:14:51;;;;;;;6.15;3.45;;;;;;;3.50;82.01;97961.84;4810385;29;20094;-76
2021/03/22 00:17:17;;;;;;;3.80;3.30;;;;;;;3.49;82.52;97948.88;4812462;29;20101;-76
2021/03/22 00:19:42;;;;;;;5.10;4.60;;;;;;;3.50;81.98;97951.28;4795421;29;20045;-77
2021/03/22 00:22:07;;;;;;;3.42;2.90;;;;;;;3.51;81.89;97947.56;4812075;29;20042;-78
2021/03/22 00:24:33;;;;;;;4.72;3.33;;;;;;;3.52;82.36;97945.72;4812603;29;20035;-78
2021/03/22 00:26:58;;;;;;;5.72;3.88;;;;;;;3.52;82.37;97948.38;4797802;29;20045;-76
2021/03/22 00:29:24;;;;;;;6.63;4.10;;;;;;;3.56;82.40;97930.16;4810140;29;20046;-76
2021/03/22 00:31:49;;;;;;;5.35;3.95;;;;;;;3.52;81.96;97911.38;4807897;29;20031;-74
2021/03/22 00:34:15;;;;;;;7.35;3.92;;;;;;;3.52;82.54;97904.22;4819104;29;20034;-76
2021/03/22 00:36:40;;;;;;;8.43;4.00;;;;;;;3.53;82.51;97908.47;4826138;29;20119;-75
2021/03/22 00:39:06;;;;;;;8.00;4.50;;;;;;;3.53;82.62;97892.59;4807083;29;20125;-75
2021/03/22 00:41:31;;;;;;;8.32;5.45;;;;;;;3.56;82.31;97891.28;4799426;29;20475;-78
2021/03/22 00:43:57;;;;;;;8.32;4.40;;;;;;;3.59;82.67;97884.69;4794725;29;20509;-77
2021/03/22 00:46:23;;;;;;;6.60;4.63;;;;;;;3.57;82.84;97877.00;4792663;29;20563;-75
2021/03/22 00:48:48;;;;;;;4.63;4.18;;;;;;;3.48;83.51;97857.44;4810018;29;20059;-76
2021/03/22 00:51:14;;;;;;;9.63;4.88;;;;;;;3.47;83.84;97859.25;4810839;29;20045;-77
2021/03/22 00:53:39;;;;;;;8.13;5.00;;;;;;;3.45;84.45;97856.06;4793774;29;20122;-76
2021/03/22 00:56:05;;;;;;;7.45;4.85;;;;;;;3.44;84.59;97866.91;4807159;29;20042;-75
2021/03/22 00:58:30;;;;;;;7.13;4.93;;;;;;;3.48;84.81;97846.88;4807791;29;20038;-75
2021/03/22 01:00:58;;;;;;;12.55;6.05;;;;;;;3.52;84.71;97850.56;4824746;29;20460;-75
2021/03/22 01:03:26;;;;;;;8.98;6.18;;;;;;;3.55;85.02;97855.31;4825555;29;20034;-77
2021/03/22 01:05:52;;;;;;;8.38;5.43;;;;;;;3.59;84.85;97851.13;4811866;29;20030;-77
2021/03/22 01:08:20;;;;;;;7.85;4.65;;;;;;;3.61;84.39;97827.06;4811655;29;20031;-77
2021/03/22 01:10:58;;;;;;;8.82;4.75;;;;;;;3.54;85.27;97835.25;4809207;29;20182;-77
2021/03/22 01:13:34;;;;;;;7.00;4.15;;;;;;;3.59;84.98;97848.47;4825282;29;20037;-77
2021/03/22 01:15:59;;;;;;;12.90;5.93;;;;;;;3.58;84.86;97833.66;4811005;29;20114;-77
2021/03/22 01:18:30;;;;;;;10.07;6.05;;;;;;;3.63;84.96;97832.91;4813660;29;20027;-79
2021/03/22 01:21:00;;;;;;;7.20;4.60;;;;;;;3.62;84.92;97816.22;4815688;29;20113;-80
2021/03/22 01:23:26;;;;;;;8.68;5.50;;;;;;;3.56;84.79;97804.03;4819556;29;20031;-79
2021/03/22 01:25:51;;;;;;;19.13;6.85;;;;;;;3.54;85.57;97803.53;4814717;29;20041;-78
2021/03/22 01:28:19;;;;;;;4.53;3.58;;;;;;;3.50;85.85;97805.09;4801111;29;20041;-77
2021/03/22 01:30:50;;;;;;;9.07;5.07;;;;;;;3.46;85.99;97791.59;4795298;29;20026;-76
2021/03/22 01:33:19;;;;;;;8.18;5.95;;;;;;;3.43;86.40;97771.00;4795805;29;20041;-79
2021/03/22 01:35:44;;;;;;;7.30;4.15;;;;;;;3.41;86.03;97774.94;4798225;29;20023;-76
2021/03/22 01:38:10;;;;;;;9.25;5.05;;;;;;;3.37;86.27;97777.31;4809581;29;20045;-75
2021/03/22 01:40:38;;;;;;;6.13;4.40;;;;;;;3.42;86.67;97776.50;4825111;29;20100;-75
2021/03/22 01:43:16;;;;;;;7.00;4.88;;;;;;;3.42;86.35;97765.94;4811567;29;20045;-76
2021/03/22 01:45:42;;;;;;;5.10;3.85;;;;;;;3.45;86.71;97762.78;4827140;29;20049;-76
2021/03/22 01:48:07;;;;;;;9.20;5.13;;;;;;;3.47;86.10;97758.03;4808120;29;20030;-75
2021/03/22 01:50:33;;;;;;;7.65;4.63;;;;;;;3.52;85.97;97760.69;4824263;29;20042;-74
2021/03/22 01:53:00;;;;;;;9.10;5.65;;;;;;;3.56;85.97;97748.53;4822659;29;20094;-74
2021/03/22 01:55:26;;;;;;;9.95;5.75;;;;;;;3.61;85.56;97753.03;4817223;29;20514;-73
2021/03/22 01:57:52;;;;;;;11.57;6.75;;;;;;;3.64;85.67;97757.81;4808490;29;20451;-75
2021/03/22 02:00:35;;;;;;;10.05;6.35;;;;;;;3.65;85.38;97756.72;4824177;29;20399;-74
2021/03/22 02:03:12;;;;;;;12.85;6.07;;;;;;;3.65;85.01;97757.53;4810636;29;20534;-73
2021/03/22 02:05:42;;;;;;;10.93;4.93;;;;;;;3.66;85.11;97745.91;4805286;29;20396;-75
2021/03/22 02:08:44;;;;;;;10.68;5.90;;;;;;;3.70;84.98;97743.53;4806817;29;20041;-78
2021/03/22 02:11:19;;;;;;;7.68;4.95;;;;;;;3.72;84.94;97735.34;4779173;30;20539;-78
2021/03/22 02:13:45;;;;;;;10.45;5.75;;;;;;;3.75;84.52;97725.03;4793351;29;20063;-77
2021/03/22 02:16:22;;;;;;;11.13;6.38;;;;;;;3.77;84.86;97728.22;4811098;29;20046;-78
2021/03/22 02:19:06;;;;;;;10.38;5.57;;;;;;;3.81;84.80;97734.56;4810148;29;20062;-78
2021/03/22 02:22:09;;;;;;;7.55;4.10;;;;;;;3.81;84.39;97731.13;4807095;29;20130;-77
2021/03/22 02:24:53;;;;;;;7.05;4.00;;;;;;;3.75;84.74;97724.22;4821086;29;20061;-77
2021/03/22 02:27:56;;;;;;;7.55;3.38;;;;;;;3.77;85.09;97737.97;4794285;29;20034;-78
2021/03/22 02:30:50;;;;;;;4.45;2.97;;;;;;;3.73;85.50;97735.06;4812489;29;20468;-78
2021/03/22 02:33:50;;;;;;;5.13;3.80;;;;;;;3.73;85.49;97735.06;4800154;29;20123;-78
2021/03/22 02:36:28;;;;;;;5.75;4.00;;;;;;;3.75;85.10;97740.91;4808578;29;20113;-77
2021/03/22 02:38:59;;;;;;;5.10;4.13;;;;;;;3.79;85.43;97749.09;4805034;29;20039;-77
2021/03/22 02:41:37;;;;;;;5.38;3.42;;;;;;;3.81;85.42;97729.25;4792568;29;20062;-76
2021/03/22 02:44:09;;;;;;;3.83;2.70;;;;;;;3.84;85.20;97722.66;4806963;29;20536;-77
2021/03/22 02:46:35;;;;;;;4.18;2.58;;;;;;;3.78;85.56;97718.41;4789975;29;20058;-77
2021/03/22 02:49:11;;;;;;;4.07;3.03;;;;;;;3.76;85.56;97716.03;4790610;29;20039;-77
2021/03/22 02:51:37;;;;;;;4.75;2.97;;;;;;;3.76;85.74;97713.41;4806375;29;20499;-76
2021/03/22 02:54:14;;;;;;;4.65;3.05;;;;;;;3.73;85.54;97719.19;4818275;29;20034;-75
2021/03/22 02:57:09;;;;;;;7.20;2.97;;;;;;;3.69;85.59;97718.94;4806006;29;20040;-76
2021/03/22 02:59:49;;;;;;;3.53;3.03;;;;;;;3.65;86.07;97709.16;4821908;29;20403;-75
2021/03/22 03:02:15;;;;;;;4.63;2.55;;;;;;;3.62;86.41;97705.19;4815067;29;20045;-77
2021/03/22 03:04:42;;;;;;;2.97;2.40;;;;;;;3.63;86.51;97714.69;4789112;29;20034;-73
2021/03/22 03:07:19;;;;;;;4.50;2.30;;;;;;;3.60;86.53;97715.25;4804569;29;20082;-76
2021/03/22 03:09:44;;;;;;;5.75;2.50;;;;;;;3.63;86.94;97706.78;4791958;29;20035;-78
2021/03/22 03:12:15;;;;;;;4.07;2.10;;;;;;;3.60;86.76;97693.28;4800347;29;20057;-78
2021/03/22 03:14:45;;;;;;;2.25;1.98;;;;;;;3.56;86.58;97687.72;4791614;29;20054;-77
2021/03/22 03:17:11;;;;;;;4.50;1.95;;;;;;;3.47;87.02;97674.25;4790039;29;20504;-76
2021/03/22 03:19:36;;;;;;;3.70;1.98;;;;;;;3.42;87.37;97674.25;4822684;29;20045;-78
2021/03/22 03:22:04;;;;;;;2.05;1.67;;;;;;;3.38;87.45;97680.31;4818828;29;20144;-77
2021/03/22 03:24:29;;;;;;;2.95;1.88;;;;;;;3.32;87.89;97693.53;4792796;29;20607;-77
2021/03/22 03:26:54;;;;;;;4.18;2.83;;;;;;;3.31;88.26;97689.28;4792819;29;20027;-76
2021/03/22 03:29:20;;;;;;;2.42;1.85;;;;;;;3.29;88.28;97680.03;4794955;29;20572;-77
2021/03/22 03:31:45;;;;;;;2.35;2.03;;;;;;;3.24;88.73;97666.81;4800963;29;20475;-78
2021/03/22 03:34:11;;;;;;;2.90;1.70;;;;;;;3.18;88.67;97664.16;4810955;29;20460;-78
2021/03/22 03:36:36;;;;;;;2.10;1.73;;;;;;;3.22;88.97;97672.34;4804633;29;20039;-78
2021/03/22 03:39:05;;;;;;;3.13;2.08;;;;;;;3.20;89.03;97674.47;4795560;29;20039;-76
2021/03/22 03:41:31;;;;;;;3.28;2.17;;;;;;;3.14;89.36;97663.09;4794979;29;20620;-77
2021/03/22 03:43:56;;;;;;;3.22;2.70;;;;;;;3.15;89.75;97679.72;4809724;29;20076;-75
2021/03/22 03:46:22;;;;;;;11.68;3.85;;;;;;;3.11;89.72;97679.47;4820387;29;20161;-75
2021/03/22 03:48:47;;;;;;;6.18;2.85;;;;;;;3.11;90.09;97694.53;4803750;29;20121;-74
2021/03/22 03:51:12;;;;;;;4.97;3.08;;;;;;;3.09;90.09;97681.59;4805408;29;20103;-74
2021/03/22 03:53:38;;;;;;;3.60;2.72;;;;;;;3.08;89.92;97674.72;4807320;29;20039;-73
2021/03/22 03:56:04;;;;;;;3.17;2.53;;;;;;;3.12;90.18;97681.06;4806818;29;20498;-73
2021/03/22 03:58:29;;;;;;;7.15;3.83;;;;;;;3.11;89.84;97678.69;4821767;29;20042;-73
2021/03/22 04:00:55;;;;;;;3.65;2.35;;;;;;;3.13;90.02;97677.34;4819493;29;20038;-73
2021/03/22 04:03:31;;;;;;;2.53;2.15;;;;;;;3.13;89.82;97684.50;4808694;29;20035;-73
2021/03/22 04:06:07;;;;;;;4.50;2.67;;;;;;;3.09;90.33;97678.94;4815415;29;20117;-75
2021/03/22 04:08:35;;;;;;;3.22;2.60;;;;;;;3.10;90.32;97674.44;4827995;29;20035;-78
2021/03/22 04:11:04;;;;;;;2.97;2.25;;;;;;;3.11;90.00;97678.69;4815808;29;20098;-78
2021/03/22 04:13:30;;;;;;;6.57;3.10;;;;;;;3.09;90.31;97675.50;4808541;29;20045;-79
2021/03/22 04:15:55;;;;;;;3.50;2.30;;;;;;;3.09;90.63;97678.13;4795083;29;20041;-77
2021/03/22 04:18:21;;;;;;;2.92;2.28;;;;;;;3.08;90.39;97680.00;4798086;29;20110;-77
2021/03/22 04:20:47;;;;;;;2.55;2.33;;;;;;;3.08;90.41;97663.38;4794424;29;20089;-79
2021/03/22 04:23:12;;;;;;;5.53;2.63;;;;;;;3.08;90.40;97664.16;4808135;29;20477;-78
2021/03/22 04:25:37;;;;;;;3.72;1.88;;;;;;;3.07;90.62;97667.06;4795553;29;20042;-78
2021/03/22 04:28:03;;;;;;;2.80;2.40;;;;;;;3.07;90.88;97664.41;4798849;29;20037;-77
2021/03/22 04:30:29;;;;;;;3.55;2.58;;;;;;;3.06;90.66;97654.91;4793266;29;20034;-77
2021/03/22 04:32:55;;;;;;;3.95;2.70;;;;;;;3.09;90.58;97662.28;4815397;29;20038;-77
2021/03/22 04:35:25;;;;;;;5.28;2.65;;;;;;;3.06;90.33;97663.59;4810771;29;20063;-78
2021/03/22 04:37:51;;;;;;;3.50;1.70;;;;;;;3.04;90.23;97666.50;4796024;29;20438;-77
2021/03/22 04:40:24;;;;;;;5.18;3.17;;;;;;;3.04;90.50;97657.81;4818921;29;20113;-78
2021/03/22 04:42:51;;;;;;;3.92;2.50;;;;;;;3.03;90.45;97654.34;4801093;29;20038;-78
2021/03/22 04:45:23;;;;;;;3.78;2.70;;;;;;;3.03;90.71;97651.72;4798762;29;20049;-78
2021/03/22 04:47:49;;;;;;;5.07;2.70;;;;;;;3.06;90.98;97653.03;4804616;29;20415;-78
2021/03/22 04:50:17;;;;;;;2.72;2.35;;;;;;;3.04;90.70;97655.16;4808379;29;20034;-78
2021/03/22 04:52:42;;;;;;;4.95;2.72;;;;;;;3.03;90.80;97651.72;4796149;29;20035;-77
2021/03/22 04:55:08;;;;;;;4.35;3.00;;;;;;;3.04;90.71;97655.94;4794729;29;20127;-77
2021/03/22 04:57:35;;;;;;;5.93;3.35;;;;;;;3.07;91.13;97665.19;4803315;29;20045;-76
2021/03/22 05:00:04;;;;;;;5.60;3.88;;;;;;;3.09;91.16;97664.94;4794346;29;20039;-78
2021/03/22 05:02:29;;;;;;;5.05;3.45;;;;;;;3.11;91.36;97650.41;4810151;29;20045;-76
2021/03/22 05:04:55;;;;;;;7.28;3.95;;;;;;;3.15;90.98;97656.78;4828217;29;20038;-77
2021/03/22 05:07:20;;;;;;;8.32;4.85;;;;;;;3.15;90.62;97651.47;4818144;29;20039;-78
2021/03/22 05:09:46;;;;;;;5.82;3.95;;;;;;;3.14;90.46;97651.75;4804735;29;20038;-77
2021/03/22 05:12:13;;;;;;;7.47;4.70;;;;;;;3.15;90.48;97658.59;4801915;29;20113;-78
2021/03/22 05:14:38;;;;;;;6.93;4.28;;;;;;;3.13;90.44;97661.50;4799749;29;20491;-78
2021/03/22 05:17:04;;;;;;;5.70;4.22;;;;;;;3.11;90.14;97674.19;4803808;29;20112;-82
2021/03/22 05:19:30;;;;;;;8.20;5.30;;;;;;;3.10;90.72;97677.91;4806125;29;20113;-75
2021/03/22 05:21:57;;;;;;;8.10;5.60;;;;;;;3.12;90.70;97681.06;4810805;29;20556;-77
2021/03/22 05:24:23;;;;;;;7.28;4.68;;;;;;;3.09;89.98;97655.19;4799163;29;20045;-75
2021/03/22 05:26:49;;;;;;;11.60;6.03;;;;;;;3.11;90.38;97657.53;4818913;29;20046;-78
2021/03/22 05:29:15;;;;;;;11.90;6.68;;;;;;;3.09;90.33;97639.31;4801926;29;20041;-80
2021/03/22 05:31:46;;;;;;;13.98;7.13;;;;;;;3.08;90.61;97650.94;4820428;29;20579;-77
2021/03/22 05:36:51;;;;;;;19.58;8.50;;;;;;;3.10;90.72;97661.25;5002649;24;20065;-84
2021/03/22 05:39:17;;;;;;;18.85;8.55;;;;;;;3.08;90.49;97645.66;4838820;29;20042;-78
2021/03/22 05:42:25;;;;;;;22.23;9.73;;;;;;;3.08;90.33;97658.09;4826857;29;20041;-78
2021/03/22 05:45:26;;;;;;;25.45;10.45;;;;;;;3.09;90.38;97657.81;4806773;29;20582;-77
2021/03/22 05:48:15;;;;;;;30.08;10.98;;;;;;;3.08;90.36;97655.44;4834638;29;20518;-77
2021/03/22 05:50:45;;;;;;;;;;;;;;;3.08;90.19;97653.59;4832078;29;20487;-78
2021/03/22 05:53:17;;;;;;;29.20;10.85;;;;;;;3.06;90.29;97649.63;4827401;29;19917;-77
2021/03/22 05:55:54;;;;;;;26.30;10.35;;;;;;;3.04;89.98;97648.03;4830025;29;20030;-77
2021/03/22 05:58:40;;;;;;;25.17;9.05;;;;;;;3.06;90.07;97641.69;4826472;29;20034;-78
2021/03/22 06:01:43;;;;;;;16.75;8.38;;;;;;;3.08;90.34;97650.16;4825951;29;20042;-77
2021/03/22 06:04:36;;;;;;;12.82;6.55;;;;;;;3.08;90.07;97658.09;4803022;29;20131;-78
2021/03/22 06:07:04;;;;;;;7.72;4.60;;;;;;;3.10;90.00;97653.31;4841687;29;20041;-78
2021/03/22 06:09:45;;;;;;;7.82;4.07;;;;;;;3.15;89.70;97659.41;4841639;29;20033;-78
2021/03/22 06:12:19;;;;;;;4.05;3.38;;;;;;;3.18;89.15;97658.09;4825151;29;20099;-77
2021/03/22 06:18:13;;;;;;;4.70;3.53;;;;;;;3.13;88.23;97656.22;5217180;24;20046;-80
2021/03/22 06:21:19;;;;;;;3.33;2.55;;;;;;;3.10;88.60;97653.31;4928173;24;20090;-81
2021/03/22 06:23:47;;;;;;;2.03;1.80;;;;;;;3.06;88.61;97654.91;4785319;30;20059;-78
2021/03/22 06:45:41;;;;;;;2.47;2.08;;;;;;;2.90;86.88;97710.31;4928456;24;20148;-80
2021/03/22 06:48:21;;;;;;;4.13;2.08;;;;;;;2.89;87.44;97708.72;4865317;29;20096;-79
2021/03/22 06:50:53;;;;;;;2.22;2.03;;;;;;;2.89;87.13;97700.78;4884269;29;20039;-78
2021/03/22 06:53:42;;;;;;;3.83;2.50;;;;;;;2.87;87.04;97685.22;4866049;29;20422;-78
2021/03/22 06:56:19;;;;;;;4.18;2.70;;;;;;;2.87;86.96;97687.84;4863633;29;20081;-77
2021/03/22 06:58:47;;;;;;;3.40;2.00;;;;;;;2.83;85.95;97678.06;4863793;29;20032;-77
2021/03/22 07:01:30;;;;;;;3.35;2.72;;;;;;;2.79;85.92;97677.78;4864494;29;20057;-78
2021/03/22 07:04:18;;;;;;;3.15;2.33;;;;;;;2.72;86.53;97672.75;4884919;29;20028;-79
2021/03/22 07:06:44;;;;;;;5.15;3.47;;;;;;;2.69;86.21;97667.19;4876377;29;20033;-81
2021/03/22 07:09:54;;;;;;;5.25;3.03;;;;;;;2.61;86.39;97665.81;4865162;29;20462;-79
2021/03/22 07:12:28;;;;;;;2.58;2.38;;;;;;;2.52;86.56;97670.81;4880539;29;20025;-79
2021/03/22 07:15:27;;;;;;;4.20;2.55;;;;;;;2.50;86.25;97674.75;4865224;29;20035;-79
2021/03/22 07:18:15;;;;;;;2.50;2.30;;;;;;;2.38;85.72;97667.84;4864365;29;20032;-76
2021/03/22 07:20:48;;;;;;;3.63;1.67;;;;;;;2.32;85.86;97668.06;4863413;29;20025;-79
2021/03/22 07:23:33;;;;;;;3.53;1.98;;;;;;;2.26;85.65;97669.09;4872695;29;20033;-78
2021/03/22 07:26:20;;;;;;;4.45;2.20;;;;;;;2.17;85.68;97663.50;4861845;29;20043;-77
2021/03/22 07:28:55;;;;;;;5.70;2.17;;;;;;;2.06;86.10;97655.56;4879502;29;20187;-78
2021/03/22 07:31:36;;;;;;;3.55;2.10;;;;;;;2.02;86.65;97657.09;4862118;29;20037;-78
2021/03/22 07:34:04;;;;;;;2.58;2.00;;;;;;;2.01;86.90;97660.00;4864046;29;20417;-80
2021/03/22 07:36:35;;;;;;;4.60;2.72;;;;;;;1.97;86.57;97678.16;4864719;29;20041;-80
2021/03/22 07:39:19;;;;;;;2.55;2.20;;;;;;;1.99;86.93;97676.06;4864025;29;20044;-79
2021/03/22 07:42:18;;;;;;;2.88;2.00;;;;;;;2.02;87.37;97680.81;4866232;29;20108;-79
2021/03/22 07:45:08;;;;;;;2.35;1.77;;;;;;;2.08;87.40;97674.53;4863219;29;20047;-79
2021/03/22 07:47:45;;;;;;;2.70;2.50;;;;;;;2.10;87.09;97657.66;4862551;29;20036;-77
2021/03/22 07:50:40;;;;;;;2.58;2.08;;;;;;;2.13;87.19;97655.31;4864089;29;20127;-79
2021/03/22 07:53:11;;;;;;;3.80;1.88;;;;;;;2.18;86.99;97650.06;4866781;29;20036;-79
2021/03/22 07:55:55;;;;;;;1.92;1.75;;;;;;;2.20;86.49;97663.78;4866117;29;20032;-80
2021/03/22 07:58:48;;;;;;;2.72;2.03;;;;;;;2.20;86.21;97647.19;4870934;29;20040;-79
2021/03/22 08:01:41;;;;;;;2.88;1.80;;;;;;;2.16;86.58;97640.81;4853400;29;20037;-79
2021/03/22 08:04:25;;;;;;;4.20;3.05;;;;;;;2.12;87.03;97651.09;4865961;29;20052;-79
2021/03/22 08:07:10;;;;;;;4.82;2.88;;;;;;;2.12;87.45;97655.56;4866399;29;20061;-79
2021/03/22 08:10:06;;;;;;;4.38;2.72;;;;;;;2.17;88.12;97658.22;4866078;29;20029;-79
2021/03/22 08:12:57;;;;;;;4.78;3.05;;;;;;;2.22;88.14;97668.81;4867316;29;20029;-80
2021/03/22 08:15:32;;;;;;;6.70;2.97;;;;;;;2.30;88.10;97667.56;4853783;29;20048;-79
2021/03/22 08:18:03;;;;;;;7.68;2.85;;;;;;;2.37;88.13;97663.63;4865406;29;20072;-78
2021/03/22 08:20:47;;;;;;;3.05;2.15;;;;;;;2.38;87.31;97653.84;4864701;29;20033;-79
2021/03/22 08:23:37;;;;;;;3.38;2.70;;;;;;;2.40;87.08;97651.75;4863794;29;20025;-79
2021/03/22 08:26:06;;;;;;;4.90;3.35;;;;;;;2.44;87.24;97650.22;4862918;29;20029;-78
2021/03/22 08:28:48;;;;;;;3.70;3.08;;;;;;;2.50;87.32;97654.47;4863266;29;20048;-78
2021/03/22 08:31:25;;;;;;;3.25;2.95;;;;;;;2.52;86.41;97641.00;4866156;29;20033;-79
2021/03/22 08:34:00;;;;;;;4.13;2.17;;;;;;;2.47;86.28;97635.72;4864236;29;20132;-79
2021/03/22 08:36:55;;;;;;;3.80;2.30;;;;;;;2.48;85.67;97632.81;4862996;29;20041;-79
2021/03/22 08:39:30;;;;;;;5.85;2.92;;;;;;;2.53;86.48;97634.69;4864824;29;20032;-79
2021/03/22 08:42:14;;;;;;;3.53;2.50;;;;;;;2.53;85.29;97635.47;4872808;29;20040;-79
2021/03/22 08:45:30;;;;;;;2.25;2.05;;;;;;;2.54;85.37;97649.47;4878105;29;20045;-81
2021/03/22 08:48:28;;;;;;;3.83;2.58;;;;;;;2.52;85.64;97633.88;4883640;29;20110;-80
2021/03/22 08:51:13;;;;;;;3.58;2.13;;;;;;;2.54;85.85;97649.47;4891408;29;20044;-80
2021/03/22 08:53:44;;;;;;;4.35;2.22;;;;;;;2.52;85.97;97659.47;4872294;29;20040;-81
2021/03/22 08:56:39;;;;;;;3.95;2.72;;;;;;;2.52;86.23;97654.19;4888702;29;20043;-80
2021/03/22 08:59:19;;;;;;;3.03;2.50;;;;;;;2.53;85.61;97659.22;4876732;29;20060;-80
2021/03/22 09:01:49;;;;;;;2.75;2.20;;;;;;;2.59;85.87;97643.38;4875318;29;20076;-80
2021/03/22 09:04:21;;;;;;;5.47;2.08;;;;;;;2.62;85.56;97634.97;4894802;29;20088;-81
2021/03/22 09:06:58;;;;;;;3.42;2.22;;;;;;;2.63;85.85;97634.69;4875422;29;20041;-80
2021/03/22 09:10:29;;;;;;;2.42;2.20;;;;;;;2.67;85.78;97638.44;4870663;29;20544;-80
2021/03/22 09:13:24;;;;;;;2.28;1.80;;;;;;;2.69;85.24;97638.94;4812594;29;20038;-78
2021/03/22 09:16:13;;;;;;;2.30;1.63;;;;;;;2.75;85.37;97628.41;4824028;29;20042;-76
2021/03/22 09:21:48;;;;;;;3.83;2.78;;;;;;;2.71;85.02;97618.38;4880331;29;20068;-75
2021/03/22 09:24:38;;;;;;;4.97;2.22;;;;;;;2.71;85.20;97607.00;4882182;29;20049;-81
2021/03/22 09:27:24;;;;;;;2.10;1.88;;;;;;;2.75;85.50;97602.00;4871303;29;20033;-80
2021/03/22 09:29:57;;;;;;;3.67;2.42;;;;;;;2.75;84.92;97607.28;4869998;29;20163;-80
2021/03/22 09:32:35;;;;;;;3.45;2.50;;;;;;;2.81;85.23;97616.81;4869994;29;20039;-82
2021/03/22 09:35:21;;;;;;;3.47;2.60;;;;;;;2.85;84.67;97610.75;4872334;29;20069;-82
2021/03/22 09:38:33;;;;;;;3.35;2.28;;;;;;;2.85;84.55;97608.09;4865767;29;20047;-79
2021/03/22 09:41:53;;;;;;;2.35;2.05;;;;;;;2.86;84.58;97612.31;4872342;29;20105;-82
2021/03/22 09:44:37;;;;;;;2.28;2.03;;;;;;;2.82;84.52;97621.03;4922573;24;20062;-79
2021/03/22 09:47:21;;;;;;;2.15;1.70;;;;;;;2.87;84.63;97631.63;4852418;29;20057;-80
2021/03/22 09:50:00;;;;;;;3.20;2.23;;;;;;;2.86;84.73;97636.09;4861287;29;20062;-79
2021/03/22 09:56:53;;;;;;;4.03;2.75;;;;;;;2.87;84.29;97639.53;4834845;29;20135;-79
2021/03/22 10:00:02;;;;;;;5.32;2.15;;;;;;;2.89;84.46;97640.06;4839106;29;20030;-79
2021/03/22 10:02:58;;;;;;;3.42;2.28;;;;;;;2.88;85.02;97630.53;5292418;24;20069;-80
2021/03/22 10:05:58;;;;;;;4.20;2.95;;;;;;;2.95;85.12;97643.50;4925281;24;20061;-82
2021/03/22 10:09:04;;;;;;;3.70;2.95;;;;;;;3.00;84.81;97646.97;4854589;29;20498;-78
2021/03/22 10:11:42;;;;;;;3.22;2.33;;;;;;;3.04;84.32;97650.66;4823255;29;20042;-79
2021/03/22 10:20:41;;;;;;;3.45;2.08;;;;;;;3.00;84.52;97643.53;5096855;24;20066;-83
2021/03/22 10:26:43;;;;;;;3.95;2.30;;;;;;;2.98;84.05;97642.97;4973051;24;20068;-81
2021/03/22 10:29:41;;;;;;;3.97;2.83;;;;;;;3.00;84.10;97644.34;4854253;29;20026;-82
2021/03/22 10:32:24;;;;;;;6.38;2.90;;;;;;;3.04;83.98;97649.88;4867729;29;20057;-80
2021/03/22 10:35:27;;;;;;;4.55;3.10;;;;;;;3.03;84.02;97651.72;4848372;29;20037;-80
2021/03/22 10:38:16;;;;;;;3.03;2.65;;;;;;;3.01;84.30;97643.25;4861326;29;20042;-80
2021/03/22 10:41:28;;;;;;;;;;;;;;;3.02;83.73;97630.84;4818556;29;20121;-81
2021/03/22 10:44:29;;;;;;;3.15;2.10;;;;;;;3.06;84.17;97620.56;4854337;29;19937;-81
2021/03/22 10:47:39;;;;;;;3.70;2.60;;;;;;;3.10;84.41;97622.44;4866337;29;20041;-80
2021/03/22 10:50:27;;;;;;;2.97;2.08;;;;;;;3.16;84.37;97621.38;4830723;29;20041;-77
2021/03/22 10:53:36;;;;;;;3.92;3.00;;;;;;;3.19;84.95;97628.75;4851816;29;20026;-81
2021/03/22 10:56:29;;;;;;;3.47;2.13;;;;;;;3.26;84.30;97617.94;4842003;29;20029;-82
2021/03/22 10:59:31;;;;;;;2.60;2.38;;;;;;;3.29;84.13;97612.13;4862396;29;20044;-79
2021/03/22 11:02:00;;;;;;;1.85;1.73;;;;;;;3.29;84.00;97606.06;4845033;29;20101;-78
2021/03/22 11:04:35;;;;;;;1.85;1.65;;;;;;;3.35;84.40;97597.84;4867347;29;20032;-78
2021/03/22 11:07:12;;;;;;;2.15;1.67;;;;;;;3.36;84.14;97596.03;4844409;29;20033;-77
2021/03/22 11:09:38;;;;;;;1.60;1.38;;;;;;;3.34;83.83;97596.28;4844807;29;20021;-76
2021/03/22 11:12:06;;;;;;;2.15;1.60;;;;;;;3.36;84.41;97602.09;4846507;29;20056;-78
2021/03/22 11:14:34;;;;;;;3.72;2.30;;;;;;;3.41;84.31;97613.75;4843472;29;20038;-77
2021/03/22 11:17:15;;;;;;;2.13;1.93;;;;;;;3.42;83.75;97613.47;4852354;29;20493;-80
2021/03/22 11:19:46;;;;;;;2.65;2.03;;;;;;;3.40;84.10;97618.22;4848431;29;20404;-79
2021/03/22 11:22:38;;;;;;;3.28;2.50;;;;;;;3.43;84.27;97608.97;4845013;29;20085;-79
2021/03/22 11:25:29;;;;;;;2.25;1.80;;;;;;;3.50;84.25;97612.13;4836400;29;20037;-78
2021/03/22 11:28:05;;;;;;;1.98;1.77;;;;;;;3.49;83.29;97623.75;4843266;29;20399;-78
2021/03/22 11:30:57;;;;;;;3.67;2.25;;;;;;;3.52;84.40;97616.09;4842370;29;20201;-78
2021/03/22 11:33:39;;;;;;;2.13;1.90;;;;;;;3.53;83.92;97612.41;4841436;29;20022;-78
2021/03/22 11:48:40;;;;;;;2.40;2.03;;;;;;;3.60;84.46;97603.41;5413843;24;20061;-81
2021/03/22 11:54:04;;;;;;;2.35;1.73;;;;;;;3.72;83.68;97603.91;4837255;24;20062;-79
2021/03/22 11:56:38;;;;;;;2.50;2.00;;;;;;;3.75;84.07;97608.69;4827765;29;20977;-79
2021/03/22 11:59:22;;;;;;;2.50;1.92;;;;;;;3.79;83.33;97620.31;4825446;29;20125;-79
2021/03/22 12:02:13;;;;;;;3.03;2.25;;;;;;;3.80;83.58;97615.81;4826970;29;20070;-80
2021/03/22 12:07:46;;;;;;;4.43;3.10;;;;;;;3.86;83.21;97635.91;4974339;24;20063;-81
2021/03/22 12:10:25;;;;;;;2.25;1.80;;;;;;;3.90;83.63;97642.25;4859269;29;20042;-77
2021/03/22 12:12:50;;;;;;;2.40;2.20;;;;;;;3.91;83.07;97656.28;4842731;29;20042;-77
2021/03/22 12:15:18;;;;;;;2.38;2.17;;;;;;;3.90;83.24;97652.81;4843604;29;20608;-77
2021/03/22 12:17:53;;;;;;;3.17;2.58;;;;;;;3.84;83.36;97630.09;4842270;29;20116;-76
2021/03/22 12:20:24;;;;;;;2.10;1.65;;;;;;;3.80;83.36;97621.13;4845971;29;20033;-79
2021/03/22 12:22:50;;;;;;;2.50;2.20;;;;;;;3.81;83.36;97612.13;4864239;29;20033;-78
2021/03/22 12:25:42;;;;;;;4.40;2.60;;;;;;;3.74;83.42;97601.81;4859119;29;20042;-80
2021/03/22 12:40:46;;;;;;;6.75;4.25;;;;;;;3.66;84.45;97604.97;5435997;24;20108;-79
2021/03/22 12:43:30;;;;;;;5.70;4.70;;;;;;;3.71;84.87;97610.28;4828518;29;20475;-76
2021/03/22 12:46:41;;;;;;;8.90;5.75;;;;;;;3.77;84.85;97621.63;4856044;29;20046;-82
2021/03/22 12:49:13;;;;;;;6.72;4.80;;;;;;;3.80;84.67;97627.19;4830240;29;20573;-81
2021/03/22 12:51:38;;;;;;;6.15;4.97;;;;;;;3.82;84.44;97622.44;4827892;29;20049;-79
2021/03/22 12:54:04;;;;;;;6.10;4.13;;;;;;;3.87;83.78;97634.84;4828984;29;20022;-79
2021/03/22 12:56:30;;;;;;;7.78;4.28;;;;;;;3.88;84.04;97628.47;4832679;29;20029;-77
2021/03/22 12:58:56;;;;;;;6.15;4.15;;;;;;;3.91;84.01;97627.19;4830115;29;20406;-79
2021/03/22 13:01:23;;;;;;;7.35;4.60;;;;;;;3.94;83.99;97624.81;4829018;29;20490;-79
2021/03/22 13:03:49;;;;;;;4.97;3.83;;;;;;;3.96;83.51;97611.28;4827535;29;20030;-80
2021/03/22 13:06:20;;;;;;;7.88;4.25;;;;;;;3.98;83.90;97614.47;4833307;29;20121;-80
2021/03/22 13:08:47;;;;;;;6.32;3.88;;;;;;;4.02;84.16;97618.16;4843350;29;20042;-79
2021/03/22 13:11:15;;;;;;;8.35;4.70;;;;;;;4.05;83.94;97614.19;4827608;29;20030;-80
2021/03/22 13:13:41;;;;;;;6.32;4.53;;;;;;;4.11;84.50;97607.81;4827828;29;20576;-81
2021/03/22 13:16:08;;;;;;;5.78;4.65;;;;;;;4.19;84.53;97611.75;4813133;29;20124;-79
2021/03/22 13:18:39;;;;;;;7.13;4.13;;;;;;;4.23;83.91;97610.16;4840818;29;20030;-80
2021/03/22 13:24:48;;;;;;;6.60;4.50;;;;;;;4.31;83.52;97601.69;4848773;24;20088;-82
2021/03/22 13:27:41;;;;;;;6.13;4.22;;;;;;;4.34;83.24;97614.38;4831648;29;20141;-81
2021/03/22 13:30:35;;;;;;;5.63;3.70;;;;;;;4.35;83.50;97625.75;4842451;29;20034;-80
2021/03/22 13:33:09;;;;;;;6.18;3.60;;;;;;;4.35;83.56;97629.19;5322492;24;20021;-79
2021/03/22 13:38:18;;;;;;;6.68;4.60;;;;;;;4.43;83.15;97638.41;4908710;24;20060;-79
2021/03/22 13:41:34;;;;;;;4.93;3.60;;;;;;;4.42;83.14;97640.28;4847063;29;20124;-81
2021/03/22 13:44:37;;;;;;;5.05;4.13;;;;;;;4.40;83.59;97633.69;4865450;29;20021;-83